createdAt,value
2019-04-27T00:01:17.083Z,76.45
2019-04-27T00:04:07.075Z,76.59
2019-04-27T00:06:43.019Z,76.70
2019-04-27T00:09:34.062Z,77.26
2019-04-27T00:12:07.242Z,77.92
2019-04-27T00:14:39.313Z,78.08
2019-04-27T00:17:41.301Z,78.26
2019-04-27T00:20:14.777Z,78.26
2019-04-27T00:22:48.157Z,78.35
2019-04-27T00:25:20.244Z,78.41
2019-04-27T01:10:02.975Z,79.64
2019-04-27T01:12:36.187Z,79.67
2019-04-27T01:15:08.236Z,79.81
2019-04-27T01:17:39.907Z,79.92
2019-04-27T01:20:12.319Z,80.02
2019-04-27T01:22:44.439Z,80.06
2019-04-27T01:25:16.221Z,80.20
2019-04-27T01:27:55.865Z,80.26
2019-04-27T01:30:35.512Z,80.33
2019-04-27T01:33:07.580Z,80.55
2019-04-27T01:35:39.440Z,80.86
2019-04-27T01:38:11.432Z,81.05
2019-04-27T01:40:43.269Z,81.15
2019-04-27T01:43:15.237Z,81.21
2019-04-27T01:45:48.740Z,81.33
2019-04-27T01:48:23.805Z,81.42
2019-04-27T01:50:53.686Z,81.48
2019-04-27T01:53:25.652Z,81.56
2019-04-27T01:55:59.187Z,81.60
2019-04-27T01:58:30.900Z,81.62
2019-04-27T02:01:22.747Z,81.65
2019-04-27T02:03:56.659Z,81.72
2019-04-27T02:06:29.525Z,81.69
2019-04-27T02:09:01.189Z,81.73
2019-04-27T02:11:34.693Z,81.77
2019-04-27T02:14:06.800Z,81.79
2019-04-27T02:16:39.135Z,81.75
2019-04-27T02:19:11.454Z,81.62
2019-04-27T02:21:43.379Z,81.59
2019-04-27T02:24:15.565Z,81.79
2019-04-27T02:26:49.617Z,81.98
2019-04-27T02:29:25.720Z,82.10
2019-04-27T02:32:01.186Z,82.12
2019-04-27T02:34:34.572Z,81.99
2019-04-27T02:37:06.652Z,81.87
2019-04-27T02:39:39.827Z,81.78
2019-04-27T02:42:12.005Z,81.73
2019-04-27T02:44:43.675Z,81.68
2019-04-27T02:47:15.949Z,81.67
2019-04-27T02:49:47.486Z,81.67
2019-04-27T02:52:21.112Z,81.63
2019-04-27T02:54:52.883Z,81.43
2019-04-27T02:57:25.240Z,81.22
2019-04-27T02:59:56.915Z,81.02
2019-04-27T03:02:30.508Z,80.64
2019-04-27T03:05:02.194Z,80.36
2019-04-27T03:07:34.230Z,80.16
2019-04-27T03:10:09.876Z,79.98
2019-04-27T03:12:43.507Z,79.59
2019-04-27T03:15:22.752Z,79.38
2019-04-27T03:18:09.721Z,79.31
2019-04-27T03:20:44.918Z,79.25
2019-04-27T03:23:19.804Z,78.91
2019-04-27T03:26:07.127Z,78.62
2019-04-27T03:28:40.252Z,78.47
2019-04-27T03:31:13.938Z,78.22
2019-04-27T03:33:45.401Z,78.04
2019-04-27T03:36:21.173Z,77.71
2019-04-27T03:38:50.765Z,77.54
2019-04-27T03:41:22.730Z,77.47
2019-04-27T03:43:54.474Z,77.41
2019-04-27T03:46:26.544Z,77.54
2019-04-27T03:48:59.999Z,77.63
2019-04-27T03:51:33.356Z,77.74
2019-04-27T03:54:10.708Z,77.87
2019-04-27T03:56:44.251Z,77.84
2019-04-27T03:59:36.176Z,77.87
2019-04-27T04:02:10.104Z,77.90
2019-04-27T04:04:41.454Z,77.81
2019-04-27T04:07:15.370Z,77.70
2019-04-27T04:09:50.090Z,77.65
2019-04-27T04:12:31.382Z,77.48
2019-04-27T04:15:03.532Z,77.23
2019-04-27T04:17:35.310Z,77.03
2019-04-27T04:20:10.112Z,76.92
2019-04-27T04:22:41.473Z,76.69
2019-04-27T04:25:13.145Z,76.29
2019-04-27T04:27:44.909Z,75.95
2019-04-27T04:30:16.875Z,75.73
2019-04-27T04:32:51.691Z,75.55
2019-04-27T04:35:24.010Z,75.34
2019-04-27T04:37:55.857Z,74.93
2019-04-27T04:40:31.888Z,74.56
2019-04-27T04:43:19.939Z,74.14
2019-04-27T04:46:05.015Z,73.73
2019-04-27T04:48:36.887Z,72.93
2019-04-27T04:51:10.115Z,72.34
2019-04-27T04:53:41.828Z,71.61
2019-04-27T04:56:13.701Z,70.90
2019-04-27T04:58:45.985Z,70.40
2019-04-27T05:01:19.680Z,69.96
2019-04-27T05:03:51.536Z,69.49
2019-04-27T05:06:25.434Z,68.91
2019-04-27T05:08:56.585Z,68.57
2019-04-27T05:11:29.873Z,68.14
2019-04-27T05:14:02.580Z,67.50
2019-04-27T05:16:34.442Z,66.99
2019-04-27T05:19:06.406Z,66.30
2019-04-27T05:21:38.935Z,65.87
2019-04-27T05:24:10.850Z,65.10
2019-04-27T05:26:42.900Z,64.24
2019-04-27T05:29:14.692Z,64.27
2019-04-27T05:31:46.853Z,63.62
2019-04-27T05:34:20.578Z,62.88
2019-04-27T05:37:02.879Z,62.66
2019-04-27T05:39:35.059Z,61.41
2019-04-27T05:42:12.543Z,60.18
2019-04-27T05:45:20.031Z,59.77
2019-04-27T05:47:55.771Z,58.86
2019-04-27T05:50:37.661Z,58.59
2019-04-27T05:53:04.424Z,58.36
2019-04-27T05:55:36.473Z,58.11
2019-04-27T05:58:09.339Z,58.00
2019-04-27T06:00:41.121Z,56.41
2019-04-27T06:03:13.196Z,56.10
2019-04-27T06:05:45.342Z,55.13
2019-04-27T06:08:18.768Z,54.14
2019-04-27T06:10:51.013Z,53.11
2019-04-27T06:13:23.178Z,53.16
2019-04-27T06:15:55.054Z,52.92
2019-04-27T06:18:27.132Z,52.93
2019-04-27T06:20:59.818Z,50.81
2019-04-27T06:23:31.549Z,50.24
2019-04-27T06:26:03.363Z,49.77
2019-04-27T06:28:35.083Z,49.59
2019-04-27T06:31:08.667Z,50.04
2019-04-27T06:33:40.138Z,47.96
2019-04-27T06:36:12.392Z,46.48
2019-04-27T06:38:44.073Z,45.51
2019-04-27T06:41:16.020Z,45.79
2019-04-27T06:43:49.503Z,45.31
2019-04-27T06:46:21.516Z,45.89
2019-04-27T06:48:53.707Z,45.79
2019-04-27T06:51:25.360Z,44.71
2019-04-27T06:53:57.197Z,44.59
2019-04-27T06:56:28.967Z,44.36
2019-04-27T06:59:00.804Z,44.11
2019-04-27T07:01:32.599Z,41.68
2019-04-27T07:04:04.864Z,40.91
2019-04-27T07:06:36.398Z,39.62
2019-04-27T07:09:09.916Z,39.23
2019-04-27T07:11:41.572Z,40.33
2019-04-27T07:14:13.232Z,38.43
2019-04-27T07:16:45.198Z,38.66
2019-04-27T07:19:18.975Z,34.96
2019-04-27T07:21:50.571Z,33.23
2019-04-27T07:24:22.670Z,33.11
2019-04-27T07:26:54.498Z,34.04
2019-04-27T07:29:26.361Z,34.47
2019-04-27T07:31:59.680Z,33.33
2019-04-27T07:34:32.289Z,33.57
2019-04-27T07:37:05.305Z,33.05
2019-04-27T07:39:36.986Z,32.62
2019-04-27T07:42:09.057Z,32.01
2019-04-27T07:44:49.990Z,31.10
2019-04-27T07:47:24.352Z,31.24
2019-04-27T07:49:56.615Z,30.62
2019-04-27T07:52:29.391Z,30.07
2019-04-27T07:55:01.171Z,30.03
2019-04-27T07:57:33.852Z,30.97
2019-04-27T08:00:09.355Z,30.59
2019-04-27T08:02:41.265Z,32.06
2019-04-27T08:05:12.925Z,32.55
2019-04-27T08:07:44.994Z,32.07
2019-04-27T08:10:19.207Z,32.26
2019-04-27T08:12:50.663Z,31.82
2019-04-27T08:15:22.509Z,32.02
2019-04-27T08:17:54.592Z,31.96
2019-04-27T08:20:26.540Z,32.50
2019-04-27T08:22:59.695Z,32.67
2019-04-27T08:25:31.930Z,31.96
2019-04-27T08:28:14.749Z,31.99
2019-04-27T08:30:54.603Z,32.89
2019-04-27T08:33:28.904Z,32.78
2019-04-27T08:36:00.682Z,32.81
2019-04-27T08:38:32.340Z,33.01
2019-04-27T08:41:04.197Z,32.29
2019-04-27T08:43:39.023Z,32.28
2019-04-27T08:46:10.775Z,32.60
2019-04-27T08:48:42.939Z,33.01
2019-04-27T08:51:15.636Z,31.41
2019-04-27T08:53:47.517Z,31.32
2019-04-27T08:56:19.806Z,31.35
2019-04-27T08:58:51.527Z,32.75
2019-04-27T09:01:23.404Z,31.91
2019-04-27T09:03:56.119Z,31.68
2019-04-27T09:06:29.193Z,32.20
2019-04-27T09:09:03.705Z,33.38
2019-04-27T09:11:39.264Z,32.23
2019-04-27T09:14:15.527Z,31.97
2019-04-27T09:16:59.505Z,32.10
2019-04-27T09:19:40.344Z,33.32
2019-04-27T09:22:16.564Z,32.39
2019-04-27T09:24:49.371Z,31.87
2019-04-27T09:27:21.134Z,32.88
2019-04-27T09:29:53.119Z,33.69
2019-04-27T09:32:24.882Z,32.99
2019-04-27T09:34:57.043Z,33.62
2019-04-27T09:37:28.738Z,32.81
2019-04-27T09:40:01.199Z,32.66
2019-04-27T09:42:33.361Z,33.41
2019-04-27T09:45:07.106Z,32.87
2019-04-27T09:47:39.131Z,32.41
2019-04-27T09:50:11.569Z,32.53
2019-04-27T09:52:43.471Z,33.96
2019-04-27T09:55:16.338Z,32.51
2019-04-27T09:57:48.017Z,33.33
2019-04-27T10:00:21.197Z,32.46
2019-04-27T10:02:52.978Z,32.95
2019-04-27T10:05:26.338Z,33.15
2019-04-27T10:07:58.241Z,33.78
2019-04-27T10:10:30.087Z,32.69
2019-04-27T10:13:01.965Z,32.43
2019-04-27T10:15:35.555Z,32.33
2019-04-27T10:18:07.421Z,32.46
2019-04-27T10:20:41.067Z,33.17
2019-04-27T10:23:12.885Z,32.68
2019-04-27T10:25:45.799Z,33.88
2019-04-27T10:28:17.948Z,33.23
2019-04-27T10:30:49.608Z,33.37
2019-04-27T10:33:22.049Z,33.05
2019-04-27T10:35:53.757Z,32.29
2019-04-27T10:38:26.084Z,32.08
2019-04-27T10:40:57.999Z,32.79
2019-04-27T10:43:30.174Z,32.14
2019-04-27T10:46:01.935Z,32.18
2019-04-27T10:48:33.903Z,33.45
2019-04-27T10:51:07.301Z,32.57
2019-04-27T10:53:39.143Z,32.39
2019-04-27T10:56:11.137Z,33.20
2019-04-27T10:58:42.889Z,33.00
2019-04-27T11:01:15.630Z,31.43
2019-04-27T11:03:52.152Z,31.89
2019-04-27T11:06:34.977Z,32.79
2019-04-27T11:09:10.217Z,32.58
2019-04-27T11:11:43.103Z,31.85
2019-04-27T11:14:15.957Z,31.17
2019-04-27T11:16:47.674Z,30.84
2019-04-27T11:19:19.701Z,32.70
2019-04-27T11:21:51.691Z,31.67
2019-04-27T11:24:23.231Z,32.46
2019-04-27T11:26:56.719Z,32.10
2019-04-27T11:29:28.517Z,32.46
2019-04-27T11:32:00.377Z,31.93
2019-04-27T11:34:50.145Z,30.51
2019-04-27T11:37:23.766Z,30.54
2019-04-27T11:39:56.002Z,30.24
2019-04-27T11:42:27.798Z,32.12
2019-04-27T11:44:59.438Z,30.32
2019-04-27T11:47:31.203Z,30.39
2019-04-27T11:50:03.169Z,31.34
2019-04-27T11:52:35.357Z,32.27
2019-04-27T11:55:09.254Z,29.95
2019-04-27T11:57:41.115Z,29.31
2019-04-27T12:00:16.648Z,31.69
2019-04-27T12:02:48.328Z,29.82
2019-04-27T12:05:20.717Z,29.00
2019-04-27T12:07:52.685Z,29.89
2019-04-27T12:10:26.253Z,29.78
2019-04-27T12:12:58.053Z,29.00
2019-04-27T12:15:30.109Z,29.39
2019-04-27T12:18:01.869Z,29.37
2019-04-27T12:20:35.771Z,28.48
2019-04-27T12:23:07.234Z,30.03
2019-04-27T12:25:39.195Z,29.77
2019-04-27T12:28:15.467Z,29.10
2019-04-27T12:30:54.809Z,28.37
2019-04-27T12:33:28.019Z,28.54
2019-04-27T12:36:00.010Z,28.57
2019-04-27T12:38:31.727Z,28.12
2019-04-27T12:41:03.608Z,29.75
2019-04-27T12:43:37.414Z,28.36
2019-04-27T12:46:08.784Z,27.91
2019-04-27T12:48:40.409Z,28.03
2019-04-27T12:51:12.320Z,27.78
2019-04-27T12:53:52.656Z,28.92
2019-04-27T12:56:26.667Z,28.68
2019-04-27T12:59:00.065Z,28.73
2019-04-27T13:01:31.909Z,28.34
2019-04-27T13:04:03.995Z,28.57
2019-04-27T13:06:35.913Z,28.61
2019-04-27T13:09:08.133Z,28.02
2019-04-27T13:11:39.777Z,27.47
2019-04-27T13:14:11.861Z,29.43
2019-04-27T13:16:43.399Z,28.62
2019-04-27T13:19:16.712Z,28.75
2019-04-27T13:21:48.419Z,27.75
2019-04-27T13:24:20.340Z,28.47
2019-04-27T13:26:52.289Z,29.21
2019-04-27T13:29:25.618Z,28.78
2019-04-27T13:31:57.693Z,28.36
2019-04-27T13:34:30.460Z,27.53
2019-04-27T13:37:04.163Z,27.60
2019-04-27T13:39:36.130Z,27.92
2019-04-27T13:42:08.092Z,29.71
2019-04-27T13:44:40.168Z,29.03
2019-04-27T13:47:17.762Z,27.89
2019-04-27T13:49:54.031Z,27.53
2019-04-27T13:52:28.348Z,26.65
2019-04-27T13:54:59.701Z,26.96
2019-04-27T13:57:31.767Z,27.58
2019-04-27T14:00:04.656Z,27.57
2019-04-27T14:02:37.631Z,27.73
2019-04-27T14:05:11.768Z,29.13
2019-04-27T14:07:43.326Z,29.10
2019-04-27T14:10:15.290Z,28.46
2019-04-27T14:12:48.938Z,28.26
2019-04-27T14:15:20.652Z,27.72
2019-04-27T14:17:52.862Z,28.17
2019-04-27T14:20:24.670Z,28.48
2019-04-27T14:23:03.281Z,28.63
2019-04-27T14:25:31.898Z,29.25
2019-04-27T14:28:03.755Z,28.82
2019-04-27T14:30:35.515Z,28.36
2019-04-27T14:33:08.507Z,29.53
2019-04-27T14:35:40.384Z,29.23
2019-04-27T14:38:12.339Z,29.21
2019-04-27T14:40:44.511Z,29.67
2019-04-27T14:43:16.575Z,28.92
2019-04-27T14:45:48.688Z,28.68
2019-04-27T14:48:20.700Z,28.75
2019-04-27T14:50:52.783Z,28.83
2019-04-27T14:53:24.439Z,28.41
2019-04-27T14:55:58.306Z,28.28
2019-04-27T14:58:29.806Z,28.47
2019-04-27T15:01:01.775Z,28.08
2019-04-27T15:03:33.519Z,28.80
2019-04-27T15:06:05.485Z,29.13
2019-04-27T15:08:38.462Z,28.59
2019-04-27T15:11:17.349Z,28.19
2019-04-27T15:13:48.026Z,28.06
2019-04-27T15:16:18.386Z,28.95
2019-04-27T15:18:52.807Z,28.53
2019-04-27T15:21:25.578Z,29.18
2019-04-27T15:23:57.452Z,29.43
2019-04-27T15:26:30.826Z,30.02
2019-04-27T15:29:04.129Z,30.13
2019-04-27T15:31:38.807Z,30.83
2019-04-27T15:34:27.629Z,30.88
2019-04-27T15:36:59.793Z,30.60
2019-04-27T15:39:50.537Z,30.45
2019-04-27T15:42:29.969Z,30.17
2019-04-27T15:45:01.921Z,30.55
2019-04-27T15:47:34.913Z,31.10
2019-04-27T15:50:08.015Z,32.29
2019-04-27T15:52:39.670Z,32.93
2019-04-27T15:55:31.029Z,33.68
2019-04-27T15:57:46.893Z,34.47
2019-04-27T16:00:22.832Z,34.90
2019-04-27T16:02:55.120Z,35.27
2019-04-27T16:05:32.100Z,35.88
2019-04-27T16:08:05.960Z,36.53
2019-04-27T16:10:37.283Z,36.96
2019-04-27T16:13:13.410Z,37.48
2019-04-27T16:15:41.686Z,38.05
2019-04-27T16:18:13.245Z,38.16
2019-04-27T16:20:45.420Z,38.55
2019-04-27T16:23:18.159Z,39.01
2019-04-27T16:25:51.471Z,39.59
2019-04-27T16:28:23.887Z,40.10
2019-04-27T16:30:55.940Z,40.89
2019-04-27T16:33:28.806Z,40.64
2019-04-27T16:36:06.743Z,40.60
2019-04-27T16:38:35.630Z,40.49
2019-04-27T16:41:08.927Z,40.72
2019-04-27T16:43:41.098Z,40.92
2019-04-27T16:46:13.066Z,41.41
2019-04-27T16:48:45.112Z,41.70
2019-04-27T16:51:18.311Z,41.70
2019-04-27T16:53:50.391Z,41.96
2019-04-27T16:56:24.528Z,42.05
2019-04-27T17:01:31.308Z,42.96
2019-04-27T17:04:06.450Z,43.03
2019-04-27T17:06:40.764Z,43.59
2019-04-27T17:09:11.836Z,43.98
2019-04-27T17:11:50.107Z,44.23
2019-04-27T17:12:40.260Z,42.33
2019-04-27T17:14:28.937Z,44.61
2019-04-27T17:17:10.635Z,44.86
2019-04-27T17:19:43.863Z,45.24
2019-04-27T17:22:16.376Z,45.47
2019-04-27T17:24:49.349Z,45.89
2019-04-27T17:27:28.841Z,46.43
2019-04-27T17:30:01.412Z,47.00
2019-04-27T17:32:39.039Z,47.05
2019-04-27T17:35:14.701Z,47.19
2019-04-27T17:37:44.428Z,47.38
2019-04-27T17:40:16.575Z,47.60
2019-04-27T17:42:48.277Z,48.00
2019-04-27T17:45:21.697Z,48.34
2019-04-27T17:47:53.587Z,47.95
2019-04-27T17:50:26.213Z,48.04
2019-04-27T17:52:59.162Z,48.24
2019-04-27T17:55:31.240Z,48.24
2019-04-27T17:58:05.342Z,48.71
2019-04-27T18:00:43.572Z,49.05
2019-04-27T18:03:12.696Z,49.24
2019-04-27T18:05:50.624Z,49.58
2019-04-27T18:08:24.640Z,49.80
2019-04-27T18:10:53.705Z,49.86
2019-04-27T18:13:26.548Z,50.07
2019-04-27T18:15:58.987Z,50.32
2019-04-27T18:18:35.217Z,50.87
2019-04-27T18:21:07.495Z,51.17
2019-04-27T18:23:45.436Z,51.60
2019-04-27T18:26:47.020Z,51.43
2019-04-27T18:29:09.222Z,51.46
2019-04-27T18:31:41.160Z,51.67
2019-04-27T18:34:14.970Z,52.35
2019-04-27T18:36:47.223Z,53.19
2019-04-27T18:39:19.191Z,53.49
2019-04-27T18:41:54.245Z,53.01
2019-04-27T18:44:30.504Z,51.86
2019-04-27T18:47:02.328Z,51.71
2019-04-27T18:49:33.921Z,52.14
2019-04-27T18:52:10.588Z,52.60
2019-04-27T18:54:42.570Z,52.52
2019-04-27T18:57:15.300Z,53.40
2019-04-27T18:59:48.306Z,52.87
2019-04-27T19:02:20.295Z,52.76
2019-04-27T19:04:52.513Z,52.41
2019-04-27T19:07:24.126Z,52.03
2019-04-27T19:09:56.101Z,51.84
2019-04-27T19:12:28.742Z,52.38
2019-04-27T19:15:00.766Z,52.92
2019-04-27T19:17:32.917Z,53.92
2019-04-27T19:20:08.289Z,54.81
2019-04-27T19:22:40.859Z,55.72
2019-04-27T19:25:14.547Z,56.79
2019-04-27T19:27:48.667Z,57.21
2019-04-27T19:30:24.728Z,57.59
2019-04-27T19:32:56.796Z,57.82
2019-04-27T19:35:28.835Z,58.06
2019-04-27T19:38:00.434Z,58.34
2019-04-27T19:40:32.303Z,58.56
2019-04-27T19:43:04.167Z,58.96
2019-04-27T19:45:36.420Z,59.08
2019-04-27T19:48:10.316Z,59.22
2019-04-27T19:50:42.030Z,59.55
2019-04-27T19:53:13.753Z,59.97
2019-04-27T19:56:04.168Z,59.94
2019-04-27T19:58:38.134Z,60.09
2019-04-27T20:01:20.695Z,60.68
2019-04-27T20:03:57.964Z,61.03
2019-04-27T20:06:30.680Z,61.36
2019-04-27T20:09:04.352Z,61.26
2019-04-27T20:11:37.138Z,61.25
2019-04-27T20:14:10.976Z,61.11
2019-04-27T20:16:42.215Z,60.96
2019-04-27T20:19:14.160Z,61.02
2019-04-27T20:21:46.292Z,61.38
2019-04-27T20:24:17.903Z,61.58
2019-04-27T20:26:49.665Z,61.35
2019-04-27T20:29:45.890Z,61.22
2019-04-27T20:32:17.866Z,61.40
2019-04-27T20:34:51.425Z,61.27
2019-04-27T20:37:23.129Z,61.23
2019-04-27T20:39:55.092Z,61.46
2019-04-27T20:42:27.164Z,61.88
2019-04-27T20:44:59.237Z,62.02
2019-04-27T20:47:31.075Z,62.28
2019-04-27T20:50:03.165Z,62.66
2019-04-27T20:52:43.735Z,63.17
2019-04-27T20:55:16.005Z,63.39
2019-04-27T20:57:58.655Z,63.41
2019-04-27T21:00:23.105Z,63.31
2019-04-27T21:02:56.303Z,63.10
2019-04-27T21:05:42.077Z,63.32
2019-04-27T21:08:15.720Z,63.59
2019-04-27T21:10:47.663Z,63.96
2019-04-27T21:13:19.201Z,64.12
2019-04-27T21:15:51.055Z,64.24
2019-04-27T21:18:23.068Z,64.44
2019-04-27T21:20:54.713Z,64.62
2019-04-27T21:23:26.567Z,64.76
2019-04-27T21:25:58.748Z,64.84
2019-04-27T21:28:30.705Z,65.08
2019-04-27T21:31:02.352Z,65.19
2019-04-27T21:33:34.406Z,65.36
2019-04-27T21:36:06.498Z,65.40
2019-04-27T21:38:38.258Z,65.50
2019-04-27T21:41:10.326Z,65.49
2019-04-27T21:43:43.852Z,65.56
2019-04-27T21:46:15.698Z,65.88
2019-04-27T21:48:47.665Z,66.12
2019-04-27T21:51:19.419Z,66.30
2019-04-27T21:53:52.598Z,66.44
2019-04-27T21:56:24.682Z,66.53
2019-04-27T21:58:56.534Z,66.55
2019-04-27T22:01:31.826Z,66.69
2019-04-27T22:04:05.506Z,66.81
2019-04-27T22:06:37.056Z,66.77
2019-04-27T22:09:10.971Z,66.92
2019-04-27T22:11:44.197Z,67.03
2019-04-27T22:14:15.859Z,67.35
2019-04-27T22:16:48.551Z,67.30
2019-04-27T22:19:20.594Z,67.18
2019-04-27T22:21:53.542Z,67.15
2019-04-27T22:24:27.069Z,66.93
2019-04-27T22:26:59.034Z,66.98
2019-04-27T22:29:32.165Z,67.11
2019-04-27T22:32:03.883Z,67.03
2019-04-27T22:34:35.529Z,67.05
2019-04-27T22:37:08.739Z,67.31
2019-04-27T22:39:42.116Z,67.26
2019-04-27T22:42:23.243Z,67.11
2019-04-27T22:44:56.717Z,66.90
2019-04-27T22:47:28.582Z,66.49
2019-04-27T22:50:00.579Z,66.33
2019-04-27T22:52:32.206Z,65.66
2019-04-27T22:55:04.768Z,65.42
2019-04-27T22:57:38.305Z,65.35
2019-04-27T23:00:28.377Z,65.83
2019-04-27T23:03:02.349Z,66.69
2019-04-27T23:05:34.253Z,67.16
2019-04-27T23:08:06.325Z,67.66
2019-04-27T23:10:37.987Z,67.81
2019-04-27T23:13:11.242Z,67.51
2019-04-27T23:15:44.687Z,67.44
2019-04-27T23:18:16.836Z,67.68
2019-04-27T23:20:48.817Z,67.95
2019-04-27T23:23:21.783Z,68.04
2019-04-27T23:25:53.877Z,68.90
2019-04-27T23:28:25.527Z,68.93
2019-04-27T23:31:15.320Z,68.95
2019-04-27T23:33:48.819Z,68.90
2019-04-27T23:36:21.632Z,68.78
2019-04-27T23:38:54.245Z,68.85
2019-04-27T23:41:26.250Z,68.96
2019-04-27T23:43:58.011Z,68.82
2019-04-27T23:46:29.651Z,68.94
2019-04-27T23:49:01.742Z,69.57
2019-04-27T23:51:41.481Z,69.84
2019-04-27T23:54:14.398Z,70.06
2019-04-27T23:56:46.234Z,70.16
2019-04-27T23:59:24.512Z,70.18
